sensor_id;sensor_type;location;lat;lon;timestamp;temperature;humidity
32322;DHT22;61553;48.994;8.940;2022-08-11T00:02:47;15.10;87.60
32322;DHT22;61553;48.994;8.940;2022-08-11T00:05:16;15.10;89.10
32322;DHT22;61553;48.994;8.940;2022-08-11T00:10:15;15.00;91.00
32322;DHT22;61553;48.994;8.940;2022-08-11T00:12:42;15.00;92.00
32322;DHT22;61553;48.994;8.940;2022-08-11T00:15:09;15.00;92.70
32322;DHT22;61553;48.994;8.940;2022-08-11T00:17:36;14.90;93.20
32322;DHT22;61553;48.994;8.940;2022-08-11T00:20:07;14.90;93.70
32322;DHT22;61553;48.994;8.940;2022-08-11T00:22:35;14.90;93.70
32322;DHT22;61553;48.994;8.940;2022-08-11T00:25:16;14.80;94.40
32322;DHT22;61553;48.994;8.940;2022-08-11T00:27:42;14.80;94.90
32322;DHT22;61553;48.994;8.940;2022-08-11T00:30:10;14.70;95.30
32322;DHT22;61553;48.994;8.940;2022-08-11T00:32:38;14.70;95.80
32322;DHT22;61553;48.994;8.940;2022-08-11T00:35:07;14.70;97.00
32322;DHT22;61553;48.994;8.940;2022-08-11T00:37:33;14.70;97.20
32322;DHT22;61553;48.994;8.940;2022-08-11T00:40:03;14.60;97.50
32322;DHT22;61553;48.994;8.940;2022-08-11T00:43:14;14.60;98.30
32322;DHT22;61553;48.994;8.940;2022-08-11T00:45:42;14.60;99.10
32322;DHT22;61553;48.994;8.940;2022-08-11T00:48:18;14.50;99.90
32322;DHT22;61553;48.994;8.940;2022-08-11T01:07:31;14.10;99.90
32322;DHT22;61553;48.994;8.940;2022-08-11T01:21:34;13.80;99.90
32322;DHT22;61553;48.994;8.940;2022-08-11T01:59:44;13.10;99.90
32322;DHT22;61553;48.994;8.940;2022-08-11T02:05:06;13.00;99.90
32322;DHT22;61553;48.994;8.940;2022-08-11T02:10:42;12.90;99.90
32322;DHT22;61553;48.994;8.940;2022-08-11T02:13:48;12.90;99.90
32322;DHT22;61553;48.994;8.940;2022-08-11T02:19:09;12.70;99.90
32322;DHT22;61553;48.994;8.940;2022-08-11T02:25:09;12.60;99.90
32322;DHT22;61553;48.994;8.940;2022-08-11T02:28:01;12.70;99.90
32322;DHT22;61553;48.994;8.940;2022-08-11T02:30:37;12.60;99.90
32322;DHT22;61553;48.994;8.940;2022-08-11T02:33:21;12.60;99.90
32322;DHT22;61553;48.994;8.940;2022-08-11T02:38:54;12.50;99.90
32322;DHT22;61553;48.994;8.940;2022-08-11T02:41:27;12.40;99.90
32322;DHT22;61553;48.994;8.940;2022-08-11T02:44:33;12.40;99.90
32322;DHT22;61553;48.994;8.940;2022-08-11T02:47:26;12.30;99.90
32322;DHT22;61553;48.994;8.940;2022-08-11T02:52:52;12.30;99.90
32322;DHT22;61553;48.994;8.940;2022-08-11T02:56:10;12.20;99.90
32322;DHT22;61553;48.994;8.940;2022-08-11T02:58:53;12.20;99.90
32322;DHT22;61553;48.994;8.940;2022-08-11T03:01:47;12.20;99.90
32322;DHT22;61553;48.994;8.940;2022-08-11T03:04:24;12.10;99.90
32322;DHT22;61553;48.994;8.940;2022-08-11T03:07:05;12.00;99.90
32322;DHT22;61553;48.994;8.940;2022-08-11T03:09:54;12.10;99.90
32322;DHT22;61553;48.994;8.940;2022-08-11T03:12:40;12.00;99.90
32322;DHT22;61553;48.994;8.940;2022-08-11T03:15:40;11.90;99.90
32322;DHT22;61553;48.994;8.940;2022-08-11T03:18:36;11.90;99.90
32322;DHT22;61553;48.994;8.940;2022-08-11T03:21:20;11.90;99.90
32322;DHT22;61553;48.994;8.940;2022-08-11T03:24:03;11.80;99.90
32322;DHT22;61553;48.994;8.940;2022-08-11T03:26:59;11.80;99.90
32322;DHT22;61553;48.994;8.940;2022-08-11T03:32:10;11.80;99.90
32322;DHT22;61553;48.994;8.940;2022-08-11T03:34:44;11.80;99.90
32322;DHT22;61553;48.994;8.940;2022-08-11T03:46:09;11.60;99.90
32322;DHT22;61553;48.994;8.940;2022-08-11T03:48:53;11.60;99.90
32322;DHT22;61553;48.994;8.940;2022-08-11T03:51:28;11.60;99.90
32322;DHT22;61553;48.994;8.940;2022-08-11T04:08:19;11.40;99.90
32322;DHT22;61553;48.994;8.940;2022-08-11T04:16:42;11.40;99.90
32322;DHT22;61553;48.994;8.940;2022-08-11T04:55:36;11.70;99.90
32322;DHT22;61553;48.994;8.940;2022-08-11T05:10:17;12.20;99.90
32322;DHT22;61553;48.994;8.940;2022-08-11T05:13:03;12.30;99.90
32322;DHT22;61553;48.994;8.940;2022-08-11T05:15:56;12.40;99.90
32322;DHT22;61553;48.994;8.940;2022-08-11T05:18:50;12.50;99.90
32322;DHT22;61553;48.994;8.940;2022-08-11T05:21:36;12.60;99.90
32322;DHT22;61553;48.994;8.940;2022-08-11T05:25:05;12.70;99.90
32322;DHT22;61553;48.994;8.940;2022-08-11T05:27:35;12.90;99.90
32322;DHT22;61553;48.994;8.940;2022-08-11T05:30:27;13.00;99.90
32322;DHT22;61553;48.994;8.940;2022-08-11T05:33:20;13.20;99.90
32322;DHT22;61553;48.994;8.940;2022-08-11T05:38:55;13.50;99.90
32322;DHT22;61553;48.994;8.940;2022-08-11T05:41:40;13.70;99.90
32322;DHT22;61553;48.994;8.940;2022-08-11T05:44:26;13.90;99.90
32322;DHT22;61553;48.994;8.940;2022-08-11T05:47:23;14.10;99.90
32322;DHT22;61553;48.994;8.940;2022-08-11T05:50:13;14.30;99.90
32322;DHT22;61553;48.994;8.940;2022-08-11T05:52:58;14.50;99.90
32322;DHT22;61553;48.994;8.940;2022-08-11T05:55:43;14.60;99.90
32322;DHT22;61553;48.994;8.940;2022-08-11T05:58:36;14.80;99.90
32322;DHT22;61553;48.994;8.940;2022-08-11T06:01:03;15.00;99.90
32322;DHT22;61553;48.994;8.940;2022-08-11T06:03:31;15.20;99.90
32322;DHT22;61553;48.994;8.940;2022-08-11T06:05:58;15.60;99.90
32322;DHT22;61553;48.994;8.940;2022-08-11T06:08:29;16.40;99.90
32322;DHT22;61553;48.994;8.940;2022-08-11T06:11:03;17.10;99.90
32322;DHT22;61553;48.994;8.940;2022-08-11T06:13:29;17.30;99.90
32322;DHT22;61553;48.994;8.940;2022-08-11T06:15:56;17.70;99.90
32322;DHT22;61553;48.994;8.940;2022-08-11T06:18:23;18.30;98.90
32322;DHT22;61553;48.994;8.940;2022-08-11T06:20:51;18.50;97.70
32322;DHT22;61553;48.994;8.940;2022-08-11T06:23:20;18.50;96.30
32322;DHT22;61553;48.994;8.940;2022-08-11T06:25:51;21.70;91.30
32322;DHT22;61553;48.994;8.940;2022-08-11T06:28:19;26.20;68.20
32322;DHT22;61553;48.994;8.940;2022-08-11T06:30:55;30.10;52.10
32322;DHT22;61553;48.994;8.940;2022-08-11T06:33:35;33.00;42.60
32322;DHT22;61553;48.994;8.940;2022-08-11T06:41:44;39.10;32.70
32322;DHT22;61553;48.994;8.940;2022-08-11T06:46:51;41.50;30.10
32322;DHT22;61553;48.994;8.940;2022-08-11T06:49:31;42.30;29.50
32322;DHT22;61553;48.994;8.940;2022-08-11T06:52:15;43.00;29.20
32322;DHT22;61553;48.994;8.940;2022-08-11T06:54:51;43.10;28.90
32322;DHT22;61553;48.994;8.940;2022-08-11T06:57:21;44.30;28.50
32322;DHT22;61553;48.994;8.940;2022-08-11T07:00:06;44.30;28.10
32322;DHT22;61553;48.994;8.940;2022-08-11T07:02:56;43.70;28.40
32322;DHT22;61553;48.994;8.940;2022-08-11T07:14:24;43.10;28.60
32322;DHT22;61553;48.994;8.940;2022-08-11T07:17:21;43.30;28.60
32322;DHT22;61553;48.994;8.940;2022-08-11T07:19:56;44.00;28.40
32322;DHT22;61553;48.994;8.940;2022-08-11T07:22:45;44.10;28.20
32322;DHT22;61553;48.994;8.940;2022-08-11T07:25:33;44.10;28.40
32322;DHT22;61553;48.994;8.940;2022-08-11T07:28:26;43.30;28.20
32322;DHT22;61553;48.994;8.940;2022-08-11T07:31:25;42.90;28.50
32322;DHT22;61553;48.994;8.940;2022-08-11T07:34:20;43.30;28.10
32322;DHT22;61553;48.994;8.940;2022-08-11T07:36:53;42.60;28.20
32322;DHT22;61553;48.994;8.940;2022-08-11T07:39:25;42.50;28.40
32322;DHT22;61553;48.994;8.940;2022-08-11T07:41:55;41.50;28.30
32322;DHT22;61553;48.994;8.940;2022-08-11T07:44:23;40.40;28.80
32322;DHT22;61553;48.994;8.940;2022-08-11T07:46:51;40.20;29.10
32322;DHT22;61553;48.994;8.940;2022-08-11T07:49:37;39.90;29.20
32322;DHT22;61553;48.994;8.940;2022-08-11T07:52:24;40.00;29.20
32322;DHT22;61553;48.994;8.940;2022-08-11T07:57:50;40.50;29.00
32322;DHT22;61553;48.994;8.940;2022-08-11T08:00:42;40.70;28.90
32322;DHT22;61553;48.994;8.940;2022-08-11T08:03:31;40.20;28.90
32322;DHT22;61553;48.994;8.940;2022-08-11T08:06:16;40.10;29.10
32322;DHT22;61553;48.994;8.940;2022-08-11T08:09:01;40.30;29.00
32322;DHT22;61553;48.994;8.940;2022-08-11T08:11:47;39.70;29.20
32322;DHT22;61553;48.994;8.940;2022-08-11T08:14:32;40.10;29.00
32322;DHT22;61553;48.994;8.940;2022-08-11T08:17:17;40.20;29.00
32322;DHT22;61553;48.994;8.940;2022-08-11T08:20:02;40.40;29.20
32322;DHT22;61553;48.994;8.940;2022-08-11T08:22:29;40.90;29.00
32322;DHT22;61553;48.994;8.940;2022-08-11T08:24:55;41.70;28.40
32322;DHT22;61553;48.994;8.940;2022-08-11T08:27:22;41.80;28.50
32322;DHT22;61553;48.994;8.940;2022-08-11T08:29:50;42.30;28.10
32322;DHT22;61553;48.994;8.940;2022-08-11T08:32:39;42.40;28.20
32322;DHT22;61553;48.994;8.940;2022-08-11T08:35:06;42.90;28.00
32322;DHT22;61553;48.994;8.940;2022-08-11T08:37:34;43.10;27.60
32322;DHT22;61553;48.994;8.940;2022-08-11T08:40:00;42.90;28.00
32322;DHT22;61553;48.994;8.940;2022-08-11T08:42:28;43.40;27.90
32322;DHT22;61553;48.994;8.940;2022-08-11T08:45:07;42.80;27.80
32322;DHT22;61553;48.994;8.940;2022-08-11T08:47:40;43.80;27.50
32322;DHT22;61553;48.994;8.940;2022-08-11T08:50:16;44.10;27.50
32322;DHT22;61553;48.994;8.940;2022-08-11T08:52:54;43.90;27.40
32322;DHT22;61553;48.994;8.940;2022-08-11T08:55:22;44.30;27.30
32322;DHT22;61553;48.994;8.940;2022-08-11T08:57:53;44.10;27.30
32322;DHT22;61553;48.994;8.940;2022-08-11T09:00:20;45.20;27.00
32322;DHT22;61553;48.994;8.940;2022-08-11T09:02:46;45.10;27.10
32322;DHT22;61553;48.994;8.940;2022-08-11T09:05:16;44.70;27.00
32322;DHT22;61553;48.994;8.940;2022-08-11T09:07:43;44.30;27.30
32322;DHT22;61553;48.994;8.940;2022-08-11T09:10:13;43.60;27.70
32322;DHT22;61553;48.994;8.940;2022-08-11T09:12:41;43.90;27.30
32322;DHT22;61553;48.994;8.940;2022-08-11T09:15:08;44.10;27.20
32322;DHT22;61553;48.994;8.940;2022-08-11T09:17:38;45.10;26.80
32322;DHT22;61553;48.994;8.940;2022-08-11T09:20:12;45.20;26.70
32322;DHT22;61553;48.994;8.940;2022-08-11T09:22:43;45.20;26.50
32322;DHT22;61553;48.994;8.940;2022-08-11T09:25:30;44.90;26.70
32322;DHT22;61553;48.994;8.940;2022-08-11T09:28:17;45.30;26.60
32322;DHT22;61553;48.994;8.940;2022-08-11T09:30:46;46.20;26.00
32322;DHT22;61553;48.994;8.940;2022-08-11T09:33:15;45.50;25.80
32322;DHT22;61553;48.994;8.940;2022-08-11T09:35:41;45.50;25.20
32322;DHT22;61553;48.994;8.940;2022-08-11T09:38:12;45.00;25.40
32322;DHT22;61553;48.994;8.940;2022-08-11T09:40:57;44.60;25.20
32322;DHT22;61553;48.994;8.940;2022-08-11T09:43:25;44.20;25.40
32322;DHT22;61553;48.994;8.940;2022-08-11T09:46:10;44.60;25.50
32322;DHT22;61553;48.994;8.940;2022-08-11T09:48:40;44.30;25.40
32322;DHT22;61553;48.994;8.940;2022-08-11T09:51:07;44.70;25.30
32322;DHT22;61553;48.994;8.940;2022-08-11T09:53:36;43.90;25.40
32322;DHT22;61553;48.994;8.940;2022-08-11T09:56:04;43.00;25.90
32322;DHT22;61553;48.994;8.940;2022-08-11T09:58:51;43.30;26.00
32322;DHT22;61553;48.994;8.940;2022-08-11T10:01:20;43.90;25.60
32322;DHT22;61553;48.994;8.940;2022-08-11T10:04:16;44.70;25.60
32322;DHT22;61553;48.994;8.940;2022-08-11T10:06:48;44.30;25.80
32322;DHT22;61553;48.994;8.940;2022-08-11T10:12:08;42.30;26.00
32322;DHT22;61553;48.994;8.940;2022-08-11T10:14:39;41.80;26.10
32322;DHT22;61553;48.994;8.940;2022-08-11T10:17:25;42.00;26.30
32322;DHT22;61553;48.994;8.940;2022-08-11T10:19:54;41.90;26.00
32322;DHT22;61553;48.994;8.940;2022-08-11T10:22:22;42.10;26.00
32322;DHT22;61553;48.994;8.940;2022-08-11T10:25:07;41.00;26.10
32322;DHT22;61553;48.994;8.940;2022-08-11T10:27:52;40.20;26.50
32322;DHT22;61553;48.994;8.940;2022-08-11T10:30:25;40.20;26.50
32322;DHT22;61553;48.994;8.940;2022-08-11T10:33:11;40.30;26.50
32322;DHT22;61553;48.994;8.940;2022-08-11T10:35:56;39.10;27.00
32322;DHT22;61553;48.994;8.940;2022-08-11T10:38:23;37.50;27.50
32322;DHT22;61553;48.994;8.940;2022-08-11T10:40:50;36.30;28.00
32322;DHT22;61553;48.994;8.940;2022-08-11T10:43:38;35.70;28.50
32322;DHT22;61553;48.994;8.940;2022-08-11T10:46:09;34.60;29.00
32322;DHT22;61553;48.994;8.940;2022-08-11T10:48:55;33.90;29.40
32322;DHT22;61553;48.994;8.940;2022-08-11T10:51:23;33.20;29.80
32322;DHT22;61553;48.994;8.940;2022-08-11T10:54:08;32.70;30.00
32322;DHT22;61553;48.994;8.940;2022-08-11T10:56:54;32.70;30.30
32322;DHT22;61553;48.994;8.940;2022-08-11T10:59:39;32.40;30.20
32322;DHT22;61553;48.994;8.940;2022-08-11T11:02:09;31.90;30.70
32322;DHT22;61553;48.994;8.940;2022-08-11T11:04:57;31.60;31.30
32322;DHT22;61553;48.994;8.940;2022-08-11T11:07:36;31.60;31.30
32322;DHT22;61553;48.994;8.940;2022-08-11T11:10:04;31.40;31.50
32322;DHT22;61553;48.994;8.940;2022-08-11T11:12:54;31.30;31.50
32322;DHT22;61553;48.994;8.940;2022-08-11T11:15:40;31.40;31.60
32322;DHT22;61553;48.994;8.940;2022-08-11T11:18:31;31.10;31.90
32322;DHT22;61553;48.994;8.940;2022-08-11T11:21:14;31.00;31.90
32322;DHT22;61553;48.994;8.940;2022-08-11T11:23:54;30.80;31.90
32322;DHT22;61553;48.994;8.940;2022-08-11T11:34:56;30.80;31.90
32322;DHT22;61553;48.994;8.940;2022-08-11T11:37:25;30.80;31.70
32322;DHT22;61553;48.994;8.940;2022-08-11T11:39:54;30.70;31.40
32322;DHT22;61553;48.994;8.940;2022-08-11T11:42:22;30.70;31.60
32322;DHT22;61553;48.994;8.940;2022-08-11T11:44:48;30.90;31.80
32322;DHT22;61553;48.994;8.940;2022-08-11T11:47:16;30.90;31.50
32322;DHT22;61553;48.994;8.940;2022-08-11T11:49:46;31.00;31.60
32322;DHT22;61553;48.994;8.940;2022-08-11T11:52:15;31.00;31.90
32322;DHT22;61553;48.994;8.940;2022-08-11T11:54:45;30.70;31.60
32322;DHT22;61553;48.994;8.940;2022-08-11T11:57:17;30.60;31.90
32322;DHT22;61553;48.994;8.940;2022-08-11T12:00:05;30.70;32.10
32322;DHT22;61553;48.994;8.940;2022-08-11T12:02:49;30.80;31.90
32322;DHT22;61553;48.994;8.940;2022-08-11T12:05:16;31.00;31.70
32322;DHT22;61553;48.994;8.940;2022-08-11T12:07:42;31.00;31.40
32322;DHT22;61553;48.994;8.940;2022-08-11T12:10:28;30.80;31.00
32322;DHT22;61553;48.994;8.940;2022-08-11T12:12:55;30.90;31.10
32322;DHT22;61553;48.994;8.940;2022-08-11T12:15:39;30.90;31.10
32322;DHT22;61553;48.994;8.940;2022-08-11T12:18:05;31.00;30.90
32322;DHT22;61553;48.994;8.940;2022-08-11T12:20:31;31.00;30.70
32322;DHT22;61553;48.994;8.940;2022-08-11T12:22:57;30.80;30.90
32322;DHT22;61553;48.994;8.940;2022-08-11T12:25:42;30.80;30.70
32322;DHT22;61553;48.994;8.940;2022-08-11T12:28:27;30.80;30.70
32322;DHT22;61553;48.994;8.940;2022-08-11T12:30:53;31.00;30.80
32322;DHT22;61553;48.994;8.940;2022-08-11T12:33:20;31.00;30.20
32322;DHT22;61553;48.994;8.940;2022-08-11T12:35:57;31.00;30.10
32322;DHT22;61553;48.994;8.940;2022-08-11T12:38:23;30.90;30.10
32322;DHT22;61553;48.994;8.940;2022-08-11T12:40:50;30.90;30.20
32322;DHT22;61553;48.994;8.940;2022-08-11T12:43:35;30.90;30.20
32322;DHT22;61553;48.994;8.940;2022-08-11T12:46:22;30.80;30.30
32322;DHT22;61553;48.994;8.940;2022-08-11T12:48:55;30.60;30.20
32322;DHT22;61553;48.994;8.940;2022-08-11T12:51:42;30.70;30.00
32322;DHT22;61553;48.994;8.940;2022-08-11T12:57:32;30.70;30.30
32322;DHT22;61553;48.994;8.940;2022-08-11T13:00:19;30.80;30.30
32322;DHT22;61553;48.994;8.940;2022-08-11T13:03:05;30.80;30.40
32322;DHT22;61553;48.994;8.940;2022-08-11T13:05:53;30.80;30.50
32322;DHT22;61553;48.994;8.940;2022-08-11T13:08:21;30.90;30.00
32322;DHT22;61553;48.994;8.940;2022-08-11T13:10:50;31.00;30.10
32322;DHT22;61553;48.994;8.940;2022-08-11T13:13:36;31.00;30.30
32322;DHT22;61553;48.994;8.940;2022-08-11T13:16:05;30.90;29.80
32322;DHT22;61553;48.994;8.940;2022-08-11T13:18:32;30.80;30.00
32322;DHT22;61553;48.994;8.940;2022-08-11T13:20:59;30.90;29.90
32322;DHT22;61553;48.994;8.940;2022-08-11T13:23:25;30.90;29.80
32322;DHT22;61553;48.994;8.940;2022-08-11T13:25:53;30.90;30.00
32322;DHT22;61553;48.994;8.940;2022-08-11T13:28:20;31.00;29.90
32322;DHT22;61553;48.994;8.940;2022-08-11T13:30:48;31.10;29.80
32322;DHT22;61553;48.994;8.940;2022-08-11T13:33:35;31.10;29.40
32322;DHT22;61553;48.994;8.940;2022-08-11T13:36:05;31.10;29.60
32322;DHT22;61553;48.994;8.940;2022-08-11T13:38:31;31.00;29.50
32322;DHT22;61553;48.994;8.940;2022-08-11T13:40:58;31.10;29.30
32322;DHT22;61553;48.994;8.940;2022-08-11T13:43:25;31.10;29.50
32322;DHT22;61553;48.994;8.940;2022-08-11T13:45:51;31.20;29.40
32322;DHT22;61553;48.994;8.940;2022-08-11T13:48:38;31.30;29.80
32322;DHT22;61553;48.994;8.940;2022-08-11T13:51:05;31.30;29.30
32322;DHT22;61553;48.994;8.940;2022-08-11T13:53:49;31.20;29.50
32322;DHT22;61553;48.994;8.940;2022-08-11T13:56:17;31.20;29.60
32322;DHT22;61553;48.994;8.940;2022-08-11T13:58:43;31.30;29.40
32322;DHT22;61553;48.994;8.940;2022-08-11T14:01:10;31.40;29.20
32322;DHT22;61553;48.994;8.940;2022-08-11T14:03:39;31.40;29.30
32322;DHT22;61553;48.994;8.940;2022-08-11T14:06:07;31.50;29.20
32322;DHT22;61553;48.994;8.940;2022-08-11T14:08:37;31.40;29.10
32322;DHT22;61553;48.994;8.940;2022-08-11T14:11:05;31.40;29.00
32322;DHT22;61553;48.994;8.940;2022-08-11T14:13:51;31.40;29.00
32322;DHT22;61553;48.994;8.940;2022-08-11T14:16:30;31.30;29.10
32322;DHT22;61553;48.994;8.940;2022-08-11T14:19:00;31.40;29.10
32322;DHT22;61553;48.994;8.940;2022-08-11T14:21:27;31.30;29.40
32322;DHT22;61553;48.994;8.940;2022-08-11T14:24:15;31.30;29.00
32322;DHT22;61553;48.994;8.940;2022-08-11T14:26:42;31.30;29.00
32322;DHT22;61553;48.994;8.940;2022-08-11T14:29:12;31.30;29.10
32322;DHT22;61553;48.994;8.940;2022-08-11T14:31:43;31.20;28.90
32322;DHT22;61553;48.994;8.940;2022-08-11T14:34:10;31.20;29.10
32322;DHT22;61553;48.994;8.940;2022-08-11T14:36:38;31.30;29.10
32322;DHT22;61553;48.994;8.940;2022-08-11T14:39:08;31.30;28.90
32322;DHT22;61553;48.994;8.940;2022-08-11T14:41:37;31.40;28.80
32322;DHT22;61553;48.994;8.940;2022-08-11T14:44:22;31.40;28.80
32322;DHT22;61553;48.994;8.940;2022-08-11T14:47:07;31.40;28.70
32322;DHT22;61553;48.994;8.940;2022-08-11T14:49:39;31.40;28.80
32322;DHT22;61553;48.994;8.940;2022-08-11T14:52:24;31.40;28.80
32322;DHT22;61553;48.994;8.940;2022-08-11T14:54:51;31.50;29.10
32322;DHT22;61553;48.994;8.940;2022-08-11T14:57:38;31.70;29.00
32322;DHT22;61553;48.994;8.940;2022-08-11T15:00:08;31.80;28.80
32322;DHT22;61553;48.994;8.940;2022-08-11T15:02:36;31.90;28.70
32322;DHT22;61553;48.994;8.940;2022-08-11T15:05:22;31.90;28.40
32322;DHT22;61553;48.994;8.940;2022-08-11T15:07:51;31.80;28.50
32322;DHT22;61553;48.994;8.940;2022-08-11T15:10:18;31.80;28.70
32322;DHT22;61553;48.994;8.940;2022-08-11T15:12:45;31.60;28.50
32322;DHT22;61553;48.994;8.940;2022-08-11T15:15:12;31.50;28.60
32322;DHT22;61553;48.994;8.940;2022-08-11T15:17:58;31.50;28.70
32322;DHT22;61553;48.994;8.940;2022-08-11T15:20:27;31.60;28.60
32322;DHT22;61553;48.994;8.940;2022-08-11T15:23:11;31.60;28.70
32322;DHT22;61553;48.994;8.940;2022-08-11T15:26:14;31.60;28.40
32322;DHT22;61553;48.994;8.940;2022-08-11T15:28:48;31.50;28.90
32322;DHT22;61553;48.994;8.940;2022-08-11T15:31:33;31.50;28.40
32322;DHT22;61553;48.994;8.940;2022-08-11T15:34:21;31.30;28.60
32322;DHT22;61553;48.994;8.940;2022-08-11T15:37:11;31.20;28.60
32322;DHT22;61553;48.994;8.940;2022-08-11T15:40:15;31.30;28.70
32322;DHT22;61553;48.994;8.940;2022-08-11T15:45:46;31.20;28.80
32322;DHT22;61553;48.994;8.940;2022-08-11T15:48:34;31.10;28.70
32322;DHT22;61553;48.994;8.940;2022-08-11T15:51:08;31.00;28.80
32322;DHT22;61553;48.994;8.940;2022-08-11T15:53:45;31.00;28.70
32322;DHT22;61553;48.994;8.940;2022-08-11T15:56:12;31.00;28.80
32322;DHT22;61553;48.994;8.940;2022-08-11T15:58:42;31.10;28.60
32322;DHT22;61553;48.994;8.940;2022-08-11T16:01:29;31.10;28.40
32322;DHT22;61553;48.994;8.940;2022-08-11T16:04:17;31.10;28.50
32322;DHT22;61553;48.994;8.940;2022-08-11T16:07:06;31.00;28.60
32322;DHT22;61553;48.994;8.940;2022-08-11T16:09:50;31.00;28.40
32322;DHT22;61553;48.994;8.940;2022-08-11T16:12:19;31.00;28.90
32322;DHT22;61553;48.994;8.940;2022-08-11T16:14:49;31.00;28.50
32322;DHT22;61553;48.994;8.940;2022-08-11T16:17:46;30.90;28.70
32322;DHT22;61553;48.994;8.940;2022-08-11T16:20:15;30.80;28.90
32322;DHT22;61553;48.994;8.940;2022-08-11T16:22:43;30.80;28.90
32322;DHT22;61553;48.994;8.940;2022-08-11T16:25:15;30.80;29.10
32322;DHT22;61553;48.994;8.940;2022-08-11T16:27:45;30.90;28.90
32322;DHT22;61553;48.994;8.940;2022-08-11T16:30:12;30.80;29.10
32322;DHT22;61553;48.994;8.940;2022-08-11T16:32:40;30.70;29.40
32322;DHT22;61553;48.994;8.940;2022-08-11T16:35:15;30.60;29.50
32322;DHT22;61553;48.994;8.940;2022-08-11T16:38:02;30.60;29.70
32322;DHT22;61553;48.994;8.940;2022-08-11T16:40:50;30.50;29.80
32322;DHT22;61553;48.994;8.940;2022-08-11T16:43:18;30.40;30.00
32322;DHT22;61553;48.994;8.940;2022-08-11T16:46:20;30.40;30.00
32322;DHT22;61553;48.994;8.940;2022-08-11T16:49:12;30.40;30.00
32322;DHT22;61553;48.994;8.940;2022-08-11T16:51:40;30.20;29.90
32322;DHT22;61553;48.994;8.940;2022-08-11T16:54:06;30.10;30.10
32322;DHT22;61553;48.994;8.940;2022-08-11T16:56:37;30.10;30.20
32322;DHT22;61553;48.994;8.940;2022-08-11T16:59:14;30.00;30.00
32322;DHT22;61553;48.994;8.940;2022-08-11T17:02:05;29.90;30.60
32322;DHT22;61553;48.994;8.940;2022-08-11T17:04:50;29.90;30.20
32322;DHT22;61553;48.994;8.940;2022-08-11T17:07:37;29.90;30.10
32322;DHT22;61553;48.994;8.940;2022-08-11T17:10:34;29.80;30.10
32322;DHT22;61553;48.994;8.940;2022-08-11T17:13:27;29.70;30.40
32322;DHT22;61553;48.994;8.940;2022-08-11T17:15:57;29.60;30.30
32322;DHT22;61553;48.994;8.940;2022-08-11T17:18:34;29.50;30.40
32322;DHT22;61553;48.994;8.940;2022-08-11T17:21:11;29.40;30.70
32322;DHT22;61553;48.994;8.940;2022-08-11T17:23:40;29.30;31.10
32322;DHT22;61553;48.994;8.940;2022-08-11T17:26:29;29.10;31.60
32322;DHT22;61553;48.994;8.940;2022-08-11T17:29:19;29.00;32.10
32322;DHT22;61553;48.994;8.940;2022-08-11T17:31:46;28.90;32.40
32322;DHT22;61553;48.994;8.940;2022-08-11T17:34:32;28.80;32.70
32322;DHT22;61553;48.994;8.940;2022-08-11T17:37:17;28.70;32.90
32322;DHT22;61553;48.994;8.940;2022-08-11T17:39:45;28.60;33.00
32322;DHT22;61553;48.994;8.940;2022-08-11T17:42:12;28.50;33.20
32322;DHT22;61553;48.994;8.940;2022-08-11T17:44:58;28.40;33.10
32322;DHT22;61553;48.994;8.940;2022-08-11T17:47:44;28.30;32.80
32322;DHT22;61553;48.994;8.940;2022-08-11T17:50:29;28.20;32.90
32322;DHT22;61553;48.994;8.940;2022-08-11T17:52:57;28.00;33.30
32322;DHT22;61553;48.994;8.940;2022-08-11T17:55:42;27.90;33.40
32322;DHT22;61553;48.994;8.940;2022-08-11T17:58:27;27.80;33.60
32322;DHT22;61553;48.994;8.940;2022-08-11T18:01:13;27.70;33.80
32322;DHT22;61553;48.994;8.940;2022-08-11T18:03:40;27.50;34.20
32322;DHT22;61553;48.994;8.940;2022-08-11T18:06:09;27.40;34.40
32322;DHT22;61553;48.994;8.940;2022-08-11T18:08:38;27.20;34.80
32322;DHT22;61553;48.994;8.940;2022-08-11T18:11:24;27.00;35.20
32322;DHT22;61553;48.994;8.940;2022-08-11T18:14:10;26.80;35.00
32322;DHT22;61553;48.994;8.940;2022-08-11T18:16:56;26.70;35.60
32322;DHT22;61553;48.994;8.940;2022-08-11T18:19:40;26.50;35.70
32322;DHT22;61553;48.994;8.940;2022-08-11T18:22:31;26.40;35.90
32322;DHT22;61553;48.994;8.940;2022-08-11T18:25:21;26.20;36.00
32322;DHT22;61553;48.994;8.940;2022-08-11T18:28:09;26.00;36.20
32322;DHT22;61553;48.994;8.940;2022-08-11T18:30:57;25.90;36.70
32322;DHT22;61553;48.994;8.940;2022-08-11T18:33:53;25.70;37.20
32322;DHT22;61553;48.994;8.940;2022-08-11T18:39:34;25.20;37.90
32322;DHT22;61553;48.994;8.940;2022-08-11T18:42:21;25.00;38.40
32322;DHT22;61553;48.994;8.940;2022-08-11T18:45:12;24.80;38.40
32322;DHT22;61553;48.994;8.940;2022-08-11T18:48:02;24.70;38.40
32322;DHT22;61553;48.994;8.940;2022-08-11T18:50:47;24.50;38.30
32322;DHT22;61553;48.994;8.940;2022-08-11T18:53:34;24.40;39.10
32322;DHT22;61553;48.994;8.940;2022-08-11T18:56:21;24.20;39.10
32322;DHT22;61553;48.994;8.940;2022-08-11T18:59:07;24.00;39.60
32322;DHT22;61553;48.994;8.940;2022-08-11T19:01:55;23.90;39.60
32322;DHT22;61553;48.994;8.940;2022-08-11T19:04:39;23.70;39.70
32322;DHT22;61553;48.994;8.940;2022-08-11T19:07:25;23.60;40.30
32322;DHT22;61553;48.994;8.940;2022-08-11T19:10:10;23.50;40.40
32322;DHT22;61553;48.994;8.940;2022-08-11T19:12:56;23.40;40.10
32322;DHT22;61553;48.994;8.940;2022-08-11T19:15:41;23.40;40.30
32322;DHT22;61553;48.994;8.940;2022-08-11T19:18:27;23.30;40.40
32322;DHT22;61553;48.994;8.940;2022-08-11T19:21:14;23.20;40.20
32322;DHT22;61553;48.994;8.940;2022-08-11T19:24:02;23.10;40.50
32322;DHT22;61553;48.994;8.940;2022-08-11T19:26:47;23.00;41.00
32322;DHT22;61553;48.994;8.940;2022-08-11T19:29:35;22.90;41.40
32322;DHT22;61553;48.994;8.940;2022-08-11T19:32:19;22.90;40.80
32322;DHT22;61553;48.994;8.940;2022-08-11T19:35:06;22.80;40.60
32322;DHT22;61553;48.994;8.940;2022-08-11T19:37:51;22.80;40.70
32322;DHT22;61553;48.994;8.940;2022-08-11T19:40:37;22.70;40.40
32322;DHT22;61553;48.994;8.940;2022-08-11T19:43:22;22.80;40.10
32322;DHT22;61553;48.994;8.940;2022-08-11T19:46:08;22.80;39.90
32322;DHT22;61553;48.994;8.940;2022-08-11T19:48:55;22.70;40.10
32322;DHT22;61553;48.994;8.940;2022-08-11T19:51:41;22.70;40.10
32322;DHT22;61553;48.994;8.940;2022-08-11T19:54:31;22.80;39.70
32322;DHT22;61553;48.994;8.940;2022-08-11T19:57:16;22.80;39.60
32322;DHT22;61553;48.994;8.940;2022-08-11T20:00:02;22.80;39.40
32322;DHT22;61553;48.994;8.940;2022-08-11T20:02:47;23.00;39.40
32322;DHT22;61553;48.994;8.940;2022-08-11T20:05:31;23.10;38.90
32322;DHT22;61553;48.994;8.940;2022-08-11T20:08:17;23.10;38.80